Time;durP1;ratioP1;P1;durP2;ratioP2;P2;SDS_P1;SDS_P2;PMS_P1;PMS_P2;Temp;Humidity;BMP_temperature;BMP_pressure;BME280_temperature;BME280_humidity;BME280_pressure;Samples;Min_cycle;Max_cycle;Signal;HPM_P1;HPM_P2
2021/10/06 00:00:24;;;;;;;9.90;5.70;;;;;;;8.12;53.00;98172.83;116540;1183;71426;-72
2021/10/06 00:03:07;;;;;;;16.50;5.90;;;;;;;8.10;52.98;98172.86;116391;1182;67591;-72
2021/10/06 00:05:36;;;;;;;8.90;5.70;;;;;;;8.08;53.17;98175.93;116436;1181;69205;-72
2021/10/06 00:08:06;;;;;;;10.00;5.20;;;;;;;8.09;53.20;98176.09;116446;1183;59609;-72
2021/10/06 00:10:36;;;;;;;;;;;;;;;8.13;52.98;98175.27;116505;1181;59636;-72
2021/10/06 00:13:06;;;;;;;10.60;5.00;;;;;;;8.15;52.57;98175.63;116454;1182;69520;-73
2021/10/06 00:15:36;;;;;;;15.70;5.70;;;;;;;8.18;52.53;98175.14;116426;1182;68456;-72
2021/10/06 00:18:06;;;;;;;10.90;4.90;;;;;;;8.21;52.36;98172.66;116480;1182;69264;-73
2021/10/06 00:20:36;;;;;;;12.10;5.40;;;;;;;8.24;52.25;98170.98;116479;1180;59543;-72
2021/10/06 00:23:06;;;;;;;9.70;5.10;;;;;;;8.25;52.13;98175.48;116460;1184;59564;-72
2021/10/06 00:25:36;;;;;;;8.60;4.90;;;;;;;8.22;51.94;98181.80;116447;1182;71409;-72
2021/10/06 00:28:05;;;;;;;8.90;5.10;;;;;;;8.22;51.99;98175.42;116449;1181;67584;-70
2021/10/06 00:30:35;;;;;;;10.90;5.50;;;;;;;8.20;52.06;98172.67;116437;1184;68339;-73
2021/10/06 00:33:05;;;;;;;9.00;5.20;;;;;;;8.18;51.97;98181.29;116401;1182;59494;-73
2021/10/06 00:35:34;;;;;;;10.20;4.70;;;;;;;8.19;51.52;98180.65;116463;1182;59548;-72
2021/10/06 00:38:05;;;;;;;10.80;4.80;;;;;;;8.20;51.41;98176.61;116438;1181;69478;-72
2021/10/06 00:40:34;;;;;;;12.90;5.50;;;;;;;8.21;51.13;98176.92;116380;1183;67661;-73
2021/10/06 00:43:04;;;;;;;15.80;4.90;;;;;;;8.19;51.45;98173.47;116413;1184;69116;-70
2021/10/06 00:45:34;;;;;;;8.90;5.20;;;;;;;8.15;51.19;98169.17;116342;1184;59556;-74
2021/10/06 00:48:05;;;;;;;10.80;5.00;;;;;;;8.19;50.73;98171.42;116507;1183;59500;-72
2021/10/06 00:50:34;;;;;;;9.40;4.90;;;;;;;8.18;50.83;98169.38;116450;1183;70813;-72
2021/10/06 00:53:06;;;;;;;9.00;4.80;;;;;;;8.18;50.79;98167.80;116402;1184;68270;-73
2021/10/06 00:55:37;;;;;;;10.10;4.70;;;;;;;8.16;50.70;98168.23;116296;1184;69056;-73
2021/10/06 00:58:07;;;;;;;12.10;4.70;;;;;;;8.12;50.74;98168.73;116439;1182;59988;-68
2021/10/06 01:00:46;;;;;;;9.60;4.30;;;;;;;8.11;50.73;98168.83;116454;1182;59583;-68
2021/10/06 01:03:21;;;;;;;12.10;4.60;;;;;;;8.12;50.44;98169.27;116301;1182;70227;-70
2021/10/06 01:05:54;;;;;;;15.20;4.70;;;;;;;8.15;50.43;98163.89;116479;1183;67213;-67
2021/10/06 01:08:24;;;;;;;13.00;4.40;;;;;;;8.18;50.28;98154.56;116288;1184;68281;-68
2021/10/06 01:10:55;;;;;;;9.70;4.70;;;;;;;8.18;50.32;98152.28;116409;1183;59616;-68
2021/10/06 01:13:25;;;;;;;12.40;4.50;;;;;;;8.16;50.38;98150.80;116547;1182;59529;-71
2021/10/06 01:15:54;;;;;;;10.00;5.00;;;;;;;8.17;50.30;98153.48;116467;1182;71367;-68
2021/10/06 01:18:24;;;;;;;8.30;4.80;;;;;;;8.16;50.27;98145.77;116483;1183;67676;-72
2021/10/06 01:20:53;;;;;;;8.10;4.60;;;;;;;8.17;50.15;98136.84;116436;1182;69226;-68
2021/10/06 01:23:23;;;;;;;9.20;4.60;;;;;;;8.16;50.25;98135.43;116457;1181;59553;-68
2021/10/06 01:25:53;;;;;;;9.00;5.00;;;;;;;8.14;50.50;98143.48;116441;1179;59558;-67
2021/10/06 01:28:23;;;;;;;8.40;4.60;;;;;;;8.10;50.46;98141.08;116434;1183;70630;-69
2021/10/06 01:30:53;;;;;;;9.30;4.20;;;;;;;8.07;50.43;98139.20;116399;1183;68565;-71
2021/10/06 01:33:23;;;;;;;16.20;5.30;;;;;;;8.01;50.72;98135.95;116458;1183;69247;-72
2021/10/06 01:35:53;;;;;;;10.00;5.00;;;;;;;7.98;50.85;98132.58;116488;1183;59545;-67
2021/10/06 01:38:23;;;;;;;10.10;4.70;;;;;;;7.96;50.64;98134.10;116339;1184;59624;-71
2021/10/06 01:40:53;;;;;;;10.20;4.40;;;;;;;7.98;50.50;98124.70;116447;1182;71450;-73
2021/10/06 01:43:23;;;;;;;6.90;4.40;;;;;;;8.00;50.49;98122.64;116469;1181;68502;-73
2021/10/06 01:45:53;;;;;;;9.30;4.40;;;;;;;8.00;50.32;98112.55;116396;1184;68436;-70
2021/10/06 01:48:22;;;;;;;12.20;4.40;;;;;;;7.99;50.35;98119.02;116411;1182;59538;-72
2021/10/06 01:50:52;;;;;;;8.20;4.40;;;;;;;7.98;50.18;98116.44;116482;1182;59540;-70
2021/10/06 01:53:21;;;;;;;13.80;4.80;;;;;;;7.95;50.37;98115.67;116466;1183;71394;-69
2021/10/06 01:55:51;;;;;;;12.80;4.20;;;;;;;7.94;50.07;98116.94;116437;1183;67707;-71
2021/10/06 01:58:22;;;;;;;6.30;4.30;;;;;;;7.92;50.04;98115.86;116544;1183;69243;-70
2021/10/06 02:00:53;;;;;;;8.30;4.30;;;;;;;7.88;50.19;98119.18;116484;1183;59554;-73
2021/10/06 02:03:22;;;;;;;14.10;4.40;;;;;;;7.83;50.16;98120.33;116462;1182;59566;-69
2021/10/06 02:05:53;;;;;;;9.10;4.40;;;;;;;7.82;50.14;98119.79;116385;1182;70569;-70
2021/10/06 02:08:24;;;;;;;8.50;4.60;;;;;;;7.78;50.14;98119.90;116422;1182;68356;-70
2021/10/06 02:10:53;;;;;;;7.20;3.90;;;;;;;7.72;50.31;98118.66;116231;1182;68451;-73
2021/10/06 02:13:24;;;;;;;11.20;4.60;;;;;;;7.68;50.37;98122.55;116464;1182;59506;-71
2021/10/06 02:15:53;;;;;;;12.70;4.20;;;;;;;7.66;50.21;98121.86;116273;1182;59525;-72
2021/10/06 02:18:24;;;;;;;8.70;3.90;;;;;;;7.64;50.36;98128.97;116621;1183;71231;-71
2021/10/06 02:20:53;;;;;;;6.80;3.90;;;;;;;7.63;50.19;98123.94;116514;1182;68397;-71
2021/10/06 02:23:23;;;;;;;9.20;4.00;;;;;;;7.62;50.08;98122.45;116445;1183;69701;-73
2021/10/06 02:25:53;;;;;;;8.50;4.30;;;;;;;7.60;50.06;98123.41;116453;1184;59497;-73
2021/10/06 02:28:22;;;;;;;6.60;4.00;;;;;;;7.61;49.98;98123.72;116486;1180;59542;-73
2021/10/06 02:30:52;;;;;;;7.20;4.00;;;;;;;7.62;49.73;98114.64;116460;1182;70398;-73
2021/10/06 02:33:21;;;;;;;7.40;4.60;;;;;;;7.60;49.98;98112.39;116481;1184;68526;-67
2021/10/06 02:35:51;;;;;;;8.40;3.80;;;;;;;7.56;49.82;98114.69;116443;1183;69039;-73
2021/10/06 02:38:20;;;;;;;10.00;4.20;;;;;;;7.51;49.84;98108.96;116461;1182;59560;-73
2021/10/06 02:40:50;;;;;;;10.50;4.20;;;;;;;7.45;50.01;98106.95;116497;1182;59463;-72
2021/10/06 02:43:19;;;;;;;7.10;4.00;;;;;;;7.40;50.06;98105.73;116460;1181;71249;-71
2021/10/06 02:45:48;;;;;;;6.80;3.90;;;;;;;7.34;51.03;98103.25;116392;1184;68389;-72
2021/10/06 02:48:21;;;;;;;6.90;4.10;;;;;;;7.25;50.73;98101.88;116424;1180;69391;-73
2021/10/06 02:50:51;;;;;;;10.40;4.40;;;;;;;7.20;50.54;98096.80;116468;1182;59566;-71
2021/10/06 02:53:20;;;;;;;13.90;4.50;;;;;;;7.17;50.81;98092.16;116461;1177;59515;-67
2021/10/06 02:55:50;;;;;;;10.60;4.60;;;;;;;7.11;51.05;98093.22;116432;1183;70776;-72
2021/10/06 02:58:19;;;;;;;9.40;4.30;;;;;;;7.06;51.10;98090.48;116416;1184;67484;-70
2021/10/06 03:00:48;;;;;;;10.30;3.80;;;;;;;7.00;51.18;98093.43;116420;1182;68489;-69
2021/10/06 03:03:18;;;;;;;12.60;4.90;;;;;;;6.91;51.13;98092.20;116412;1182;59553;-70
2021/10/06 03:05:47;;;;;;;6.40;3.80;;;;;;;6.85;51.75;98095.62;116424;1184;59561;-73
2021/10/06 03:08:16;;;;;;;8.60;4.30;;;;;;;6.78;51.54;98097.91;116446;1182;71205;-73
2021/10/06 03:10:46;;;;;;;8.30;4.50;;;;;;;6.71;51.38;98101.81;116435;1182;68732;-68
2021/10/06 03:13:15;;;;;;;9.40;4.10;;;;;;;6.67;51.41;98099.93;116441;1182;69183;-70
2021/10/06 03:15:44;;;;;;;10.60;4.30;;;;;;;6.70;51.66;98105.52;116509;1182;59535;-70
2021/10/06 03:18:13;;;;;;;8.40;4.00;;;;;;;6.76;51.48;98106.41;116338;1183;59631;-73
2021/10/06 03:20:43;;;;;;;9.40;4.10;;;;;;;6.84;51.27;98101.36;116482;1182;71383;-73
2021/10/06 03:23:13;;;;;;;8.30;3.60;;;;;;;6.95;51.11;98096.83;116441;1183;67613;-73
2021/10/06 03:25:42;;;;;;;;;;;;;;;7.09;50.93;98093.55;116465;1182;69263;-73
2021/10/06 03:28:12;;;;;;;11.40;4.10;;;;;;;7.14;51.00;98093.50;116478;1182;59534;-71
2021/10/06 03:30:41;;;;;;;8.30;4.40;;;;;;;7.18;50.85;98098.23;116515;1182;59561;-71
2021/10/06 03:33:10;;;;;;;9.90;4.00;;;;;;;7.24;50.89;98101.34;116497;1182;71402;-73
2021/10/06 03:35:39;;;;;;;6.70;3.90;;;;;;;7.30;50.81;98102.16;116446;1182;68197;-73
2021/10/06 03:38:09;;;;;;;6.50;4.30;;;;;;;7.38;50.51;98100.02;116423;1182;68479;-73
2021/10/06 03:40:38;;;;;;;6.50;4.00;;;;;;;7.43;50.44;98099.11;116478;1182;59495;-73
2021/10/06 03:43:07;;;;;;;9.30;4.10;;;;;;;7.45;50.24;98100.73;116262;1183;59560;-73
2021/10/06 03:45:36;;;;;;;9.90;4.20;;;;;;;7.43;50.72;98100.52;116426;1182;72015;-73
2021/10/06 03:48:06;;;;;;;12.00;4.60;;;;;;;7.40;50.67;98105.19;116392;1182;68472;-70
2021/10/06 03:50:35;;;;;;;11.00;4.40;;;;;;;7.41;50.90;98103.91;116365;1183;67863;-72
2021/10/06 03:53:05;;;;;;;9.90;4.50;;;;;;;7.43;50.68;98105.16;116432;1182;59637;-73
2021/10/06 03:55:34;;;;;;;8.10;4.10;;;;;;;7.41;51.25;98104.23;116422;1182;59542;-74
2021/10/06 03:58:03;;;;;;;8.50;4.20;;;;;;;7.37;51.20;98100.95;116416;1184;70647;-74
2021/10/06 04:00:33;;;;;;;8.50;4.60;;;;;;;7.37;51.29;98103.23;116404;1182;67423;-72
2021/10/06 04:03:10;;;;;;;7.90;4.00;;;;;;;7.40;51.34;98109.13;116444;1181;68707;-68
2021/10/06 04:05:41;;;;;;;8.00;4.40;;;;;;;7.45;51.39;98109.88;116503;1182;59503;-72
2021/10/06 04:08:11;;;;;;;9.90;3.70;;;;;;;7.47;51.25;98109.61;116609;1182;59497;-72
2021/10/06 04:10:40;;;;;;;;;;;;;;;7.43;51.10;98103.59;116364;1183;70459;-70
2021/10/06 04:13:09;;;;;;;7.40;3.70;;;;;;;7.37;51.64;98104.50;116496;1182;68373;-66
2021/10/06 04:15:39;;;;;;;12.70;4.90;;;;;;;7.32;51.50;98101.20;116396;1183;68486;-72
2021/10/06 04:18:08;;;;;;;9.20;4.30;;;;;;;7.28;52.09;98100.05;116453;1182;59556;-71
2021/10/06 04:20:37;;;;;;;10.10;4.80;;;;;;;7.25;52.30;98097.48;116414;1182;59503;-68
2021/10/06 04:23:07;;;;;;;9.30;5.00;;;;;;;7.20;52.14;98093.18;116469;1182;71327;-72
2021/10/06 04:25:36;;;;;;;8.20;4.30;;;;;;;7.16;52.49;98096.41;116446;1182;68182;-72
2021/10/06 04:28:06;;;;;;;10.90;4.20;;;;;;;7.11;52.53;98098.56;116521;1182;68402;-70
2021/10/06 04:30:35;;;;;;;9.70;4.60;;;;;;;7.08;52.90;98098.59;116378;1182;59586;-71
2021/10/06 04:33:08;;;;;;;11.10;4.50;;;;;;;7.09;52.98;98098.02;116434;1182;59536;-67
2021/10/06 04:35:37;;;;;;;11.30;4.40;;;;;;;7.09;53.35;98099.92;116394;1182;70496;-66
2021/10/06 04:38:07;;;;;;;9.30;4.20;;;;;;;7.08;53.25;98097.95;116417;1183;68386;-71
2021/10/06 04:40:36;;;;;;;10.50;4.00;;;;;;;7.07;53.36;98092.77;116356;1182;68555;-73
2021/10/06 04:43:10;;;;;;;10.00;4.10;;;;;;;7.10;54.07;98097.71;116110;1184;59631;-69
2021/10/06 04:45:39;;;;;;;7.70;4.40;;;;;;;7.13;53.77;98096.66;116336;1182;59539;-69
2021/10/06 04:48:08;;;;;;;9.60;4.80;;;;;;;7.17;53.91;98097.27;116437;1183;71342;-73
2021/10/06 04:50:37;;;;;;;7.70;4.30;;;;;;;7.19;53.78;98095.06;116401;1183;67512;-71
2021/10/06 04:53:06;;;;;;;9.70;4.40;;;;;;;7.22;53.84;98097.58;116401;1182;68753;-72
2021/10/06 04:55:36;;;;;;;7.00;4.10;;;;;;;7.25;53.59;98100.23;116290;1182;59625;-71
2021/10/06 04:58:05;;;;;;;6.70;4.10;;;;;;;7.29;54.44;98099.73;116380;1182;59548;-73
2021/10/06 05:00:34;;;;;;;9.20;3.90;;;;;;;7.32;54.06;98099.70;116429;1182;70891;-71
2021/10/06 05:03:12;;;;;;;6.70;4.00;;;;;;;7.37;54.11;98100.39;116460;1182;68290;-73
2021/10/06 05:05:44;;;;;;;6.80;3.80;;;;;;;7.53;54.13;98105.26;116462;1182;68320;-73
2021/10/06 05:08:13;;;;;;;7.70;3.60;;;;;;;7.80;53.88;98109.48;116416;1183;59553;-71
2021/10/06 05:10:42;;;;;;;8.20;4.30;;;;;;;8.12;53.29;98104.64;116320;1183;59502;-72
2021/10/06 05:13:11;;;;;;;10.00;4.40;;;;;;;8.47;52.53;98112.00;116414;1182;69701;-72
2021/10/06 05:15:40;;;;;;;12.00;4.50;;;;;;;8.84;51.68;98114.98;116414;1182;68660;-71
2021/10/06 05:18:09;;;;;;;11.50;4.60;;;;;;;9.17;51.21;98121.92;116436;1181;69274;-72
2021/10/06 05:20:38;;;;;;;7.60;4.10;;;;;;;9.46;50.44;98117.83;116503;1181;59532;-71
2021/10/06 05:23:08;;;;;;;11.30;4.40;;;;;;;9.74;50.20;98114.02;116428;1181;59622;-71
2021/10/06 05:25:36;;;;;;;12.90;4.10;;;;;;;10.03;49.52;98116.66;116451;1183;71400;-71
2021/10/06 05:28:05;;;;;;;9.00;3.90;;;;;;;10.30;48.60;98114.96;116384;1182;68376;-73
2021/10/06 05:30:34;;;;;;;7.10;3.70;;;;;;;10.48;47.92;98113.61;116334;1184;69292;-73
2021/10/06 05:33:03;;;;;;;6.70;4.00;;;;;;;10.68;47.72;98115.25;116423;1182;59548;-71
2021/10/06 05:35:32;;;;;;;10.40;4.50;;;;;;;10.78;47.38;98119.80;116456;1178;59529;-70
2021/10/06 05:38:01;;;;;;;8.50;4.60;;;;;;;10.98;47.13;98116.87;116426;1183;70672;-67
2021/10/06 05:40:30;;;;;;;9.60;4.30;;;;;;;11.23;46.25;98118.73;116371;1182;67476;-69
2021/10/06 05:42:59;;;;;;;9.70;4.00;;;;;;;11.35;46.71;98122.52;116415;1182;67874;-73
2021/10/06 05:45:28;;;;;;;10.20;4.00;;;;;;;11.53;46.10;98117.61;116418;1182;59532;-73
2021/10/06 05:47:57;;;;;;;6.60;3.70;;;;;;;11.71;46.05;98120.63;116299;1182;59561;-72
2021/10/06 05:50:26;;;;;;;6.00;3.30;;;;;;;11.81;45.83;98116.75;116450;1182;71218;-72
2021/10/06 05:53:00;;;;;;;9.00;3.90;;;;;;;11.90;45.45;98114.10;116468;1182;68449;-70
2021/10/06 05:55:29;;;;;;;9.80;3.80;;;;;;;12.05;45.65;98116.67;116446;1182;69079;-70
2021/10/06 05:57:59;;;;;;;11.60;3.50;;;;;;;12.23;45.19;98113.45;116282;1182;60073;-68
2021/10/06 06:00:28;;;;;;;9.80;3.60;;;;;;;12.52;45.02;98118.52;116410;1182;59600;-72
2021/10/06 06:02:57;;;;;;;10.20;4.70;;;;;;;12.78;44.31;98111.08;116430;1184;71441;-71
2021/10/06 06:05:27;;;;;;;5.40;3.20;;;;;;;12.97;43.68;98110.61;116439;1182;68403;-72
2021/10/06 06:07:56;;;;;;;8.80;3.30;;;;;;;13.01;42.89;98116.23;116341;1182;69654;-71
2021/10/06 06:10:25;;;;;;;7.50;3.00;;;;;;;13.15;42.61;98120.30;116395;1183;59595;-72
2021/10/06 06:12:54;;;;;;;7.70;3.40;;;;;;;13.19;42.28;98117.72;116360;1181;59572;-74
2021/10/06 06:15:24;;;;;;;7.20;3.50;;;;;;;13.33;42.15;98117.16;116215;1182;71383;-70
2021/10/06 06:17:53;;;;;;;5.70;3.30;;;;;;;13.50;41.72;98121.36;116341;1182;67933;-72
2021/10/06 06:20:25;;;;;;;7.70;3.40;;;;;;;13.64;41.51;98122.73;116413;1182;69325;-73
2021/10/06 06:22:54;;;;;;;5.50;3.20;;;;;;;13.76;41.13;98124.39;116409;1182;59959;-73
2021/10/06 06:25:24;;;;;;;6.90;3.20;;;;;;;13.89;40.52;98119.18;116339;1182;60014;-70
2021/10/06 06:27:53;;;;;;;9.10;3.10;;;;;;;13.90;40.28;98115.26;116330;1183;70743;-71
2021/10/06 06:30:22;;;;;;;9.20;3.90;;;;;;;14.11;40.44;98112.05;116380;1182;67457;-71
2021/10/06 06:32:52;;;;;;;7.30;3.40;;;;;;;14.35;39.33;98114.14;116418;1183;69071;-69
2021/10/06 06:35:22;;;;;;;7.00;3.10;;;;;;;14.54;38.97;98118.59;116319;1182;59513;-72
2021/10/06 06:37:51;;;;;;;6.10;3.20;;;;;;;14.52;38.45;98120.03;116408;1182;59605;-73
2021/10/06 06:40:20;;;;;;;10.30;3.40;;;;;;;14.70;38.42;98114.53;116377;1182;71056;-72
2021/10/06 06:42:49;;;;;;;6.40;3.10;;;;;;;14.86;38.14;98115.17;116424;1182;68361;-69
2021/10/06 06:45:18;;;;;;;7.40;3.30;;;;;;;14.91;37.86;98115.17;116395;1182;68431;-70
2021/10/06 06:47:47;;;;;;;8.10;3.30;;;;;;;14.89;37.97;98113.23;116382;1172;59577;-71
2021/10/06 06:50:18;;;;;;;7.70;3.20;;;;;;;14.98;37.99;98112.59;116401;1182;59609;-72
2021/10/06 06:52:47;;;;;;;8.70;3.50;;;;;;;15.02;37.69;98118.98;116393;1182;71226;-73
2021/10/06 06:55:16;;;;;;;8.40;3.30;;;;;;;15.05;37.85;98114.02;116401;1182;68203;-73
2021/10/06 06:57:46;;;;;;;8.40;3.50;;;;;;;15.05;37.66;98119.61;116419;1182;69236;-69
2021/10/06 07:00:16;;;;;;;14.80;3.40;;;;;;;14.99;38.16;98117.74;116291;1182;59561;-70
2021/10/06 07:02:45;;;;;;;8.20;3.00;;;;;;;15.18;37.89;98121.66;116409;1173;59534;-68
2021/10/06 07:05:14;;;;;;;5.30;3.20;;;;;;;15.29;37.81;98124.05;116422;1182;70578;-69
2021/10/06 07:07:44;;;;;;;9.60;3.20;;;;;;;15.56;37.45;98117.48;116345;1182;67857;-70
2021/10/06 07:10:13;;;;;;;9.10;3.40;;;;;;;15.66;37.36;98117.57;116242;1182;69968;-69
2021/10/06 07:12:42;;;;;;;8.30;3.30;;;;;;;15.91;37.04;98118.92;116393;1183;59561;-71
2021/10/06 07:15:11;;;;;;;7.70;2.90;;;;;;;16.01;36.78;98121.16;116393;1182;59554;-69
2021/10/06 07:17:40;;;;;;;6.60;3.70;;;;;;;16.14;36.62;98120.61;116275;1177;71431;-71
2021/10/06 07:20:09;;;;;;;6.40;3.10;;;;;;;16.36;36.42;98119.33;116447;1182;67706;-72
2021/10/06 07:22:38;;;;;;;10.20;3.50;;;;;;;16.36;36.17;98119.39;116226;1182;68327;-74
2021/10/06 07:25:08;;;;;;;8.20;3.50;;;;;;;16.55;36.31;98117.06;116403;1182;59513;-72
2021/10/06 07:27:37;;;;;;;6.30;3.40;;;;;;;16.70;35.76;98111.03;116286;1182;59510;-69
2021/10/06 07:30:06;;;;;;;6.60;3.40;;;;;;;16.66;36.26;98112.55;116380;1184;70302;-72
2021/10/06 07:32:36;;;;;;;7.70;3.10;;;;;;;16.84;35.58;98109.78;116358;1182;68376;-69
2021/10/06 07:35:06;;;;;;;9.10;3.10;;;;;;;16.93;35.53;98108.35;116377;1182;69579;-69
2021/10/06 07:37:48;;;;;;;7.60;2.80;;;;;;;17.05;35.53;98108.62;116373;1182;59612;-69
2021/10/06 07:40:17;;;;;;;6.30;2.90;;;;;;;17.36;35.35;98110.34;116411;1182;59585;-70
2021/10/06 07:42:46;;;;;;;10.80;3.40;;;;;;;17.54;34.47;98105.30;116360;1181;71153;-74
2021/10/06 07:45:15;;;;;;;8.00;2.80;;;;;;;17.77;33.79;98104.64;116374;1182;68238;-70
2021/10/06 07:47:44;;;;;;;8.60;3.10;;;;;;;17.61;33.91;98104.72;116414;1182;67283;-70
2021/10/06 07:50:13;;;;;;;10.30;2.90;;;;;;;17.93;34.14;98098.23;116359;1182;59538;-69
2021/10/06 07:52:42;;;;;;;5.10;2.90;;;;;;;18.22;33.26;98097.26;116408;1181;59587;-69
2021/10/06 07:55:12;;;;;;;;;;;;;;;18.48;33.12;98097.63;116362;1182;71639;-70
2021/10/06 07:57:41;;;;;;;8.70;2.90;;;;;;;18.67;32.70;98103.34;116332;1182;68300;-70
2021/10/06 08:00:11;;;;;;;12.00;3.30;;;;;;;18.49;32.59;98109.14;116401;1181;68422;-73
2021/10/06 08:02:40;;;;;;;9.40;2.80;;;;;;;18.70;32.20;98105.13;116408;1182;59540;-69
2021/10/06 08:05:10;;;;;;;7.20;3.20;;;;;;;18.66;32.02;98098.52;116455;1182;59510;-73
2021/10/06 08:07:39;;;;;;;9.00;2.90;;;;;;;18.35;32.36;98105.02;116399;1182;70634;-71
2021/10/06 08:10:09;;;;;;;8.80;3.00;;;;;;;18.49;32.63;98101.73;116414;1181;67601;-72
2021/10/06 08:12:38;;;;;;;6.20;3.20;;;;;;;18.42;32.38;98103.77;116403;1181;68504;-72
2021/10/06 08:15:08;;;;;;;;;;;;;;;18.52;32.48;98109.64;116405;1183;59510;-71
2021/10/06 08:17:37;;;;;;;7.40;2.80;;;;;;;18.85;32.17;98109.48;116423;1182;59533;-73
2021/10/06 08:20:07;;;;;;;7.10;3.00;;;;;;;18.58;31.77;98100.23;116366;1182;70840;-72
2021/10/06 08:22:36;;;;;;;7.40;2.90;;;;;;;18.83;31.92;98098.45;116188;1182;67490;-70
2021/10/06 08:25:05;;;;;;;7.70;3.00;;;;;;;18.62;32.19;98099.55;116362;1182;68268;-73
2021/10/06 08:27:35;;;;;;;7.20;3.10;;;;;;;18.53;32.51;98093.05;116083;1182;59570;-74
2021/10/06 08:30:09;;;;;;;17.90;3.20;;;;;;;18.45;32.64;98098.08;116259;1182;59556;-72
2021/10/06 08:32:38;;;;;;;12.70;3.00;;;;;;;18.45;32.49;98099.91;116449;1182;71172;-72
2021/10/06 08:35:08;;;;;;;5.40;3.00;;;;;;;18.66;32.47;98093.92;116414;1181;67882;-71
2021/10/06 08:37:37;;;;;;;9.50;2.90;;;;;;;18.51;32.38;98100.68;116206;1184;68731;-73
2021/10/06 08:40:07;;;;;;;10.90;3.00;;;;;;;18.53;32.29;98099.05;116376;1181;59561;-73
2021/10/06 08:42:39;;;;;;;11.10;3.10;;;;;;;18.45;32.94;98103.63;116398;1182;59542;-75
2021/10/06 08:45:09;;;;;;;15.00;3.10;;;;;;;18.89;32.55;98090.41;116435;1182;71799;-74
2021/10/06 08:47:40;;;;;;;8.40;3.30;;;;;;;19.26;31.52;98092.29;116284;1182;67678;-72
2021/10/06 08:50:14;;;;;;;10.50;2.90;;;;;;;19.01;31.93;98098.27;116155;1183;69223;-70
2021/10/06 08:52:48;;;;;;;8.80;3.10;;;;;;;19.21;31.92;98101.33;116295;1182;59549;-72
2021/10/06 08:55:21;;;;;;;15.80;3.90;;;;;;;19.58;31.08;98095.48;116469;1182;59577;-71
2021/10/06 08:57:49;;;;;;;8.00;3.30;;;;;;;19.50;31.16;98098.23;116510;1182;70221;-71
2021/10/06 09:00:19;;;;;;;6.20;2.90;;;;;;;19.40;31.39;98111.70;116353;1182;68479;-74
2021/10/06 09:02:47;;;;;;;8.00;3.20;;;;;;;19.40;31.44;98106.23;116387;1182;68394;-71
2021/10/06 09:05:22;;;;;;;11.00;3.30;;;;;;;19.48;31.51;98104.03;116362;1182;59510;-75
2021/10/06 09:07:57;;;;;;;5.10;3.40;;;;;;;19.46;31.46;98097.81;116415;1182;59551;-74
2021/10/06 09:10:28;;;;;;;13.70;3.40;;;;;;;19.57;31.32;98094.98;116419;1182;71419;-73
2021/10/06 09:13:07;;;;;;;10.70;3.00;;;;;;;20.03;30.58;98085.50;116339;1182;68269;-71
2021/10/06 09:15:41;;;;;;;11.20;3.10;;;;;;;20.02;30.16;98093.81;116382;1182;68217;-70
2021/10/06 09:18:13;;;;;;;8.00;3.20;;;;;;;19.52;30.83;98096.89;116400;1182;59564;-73
2021/10/06 09:20:43;;;;;;;10.20;3.20;;;;;;;19.57;30.61;98091.36;116392;1182;59558;-70
2021/10/06 09:23:15;;;;;;;11.70;3.40;;;;;;;19.17;31.33;98103.14;116375;1182;70614;-69
2021/10/06 09:25:59;;;;;;;13.80;3.40;;;;;;;19.53;30.92;98099.51;116427;1182;68479;-69
2021/10/06 09:28:30;;;;;;;14.70;3.70;;;;;;;19.59;30.47;98089.30;116353;1182;69322;-70
2021/10/06 09:31:03;;;;;;;10.80;3.30;;;;;;;19.74;30.41;98090.52;116388;1182;59557;-69
2021/10/06 09:33:43;;;;;;;12.20;2.90;;;;;;;20.11;30.04;98095.54;116391;1182;59577;-71
2021/10/06 09:36:16;;;;;;;15.40;3.50;;;;;;;20.19;29.55;98084.98;116408;1182;71215;-72
2021/10/06 09:38:50;;;;;;;9.60;3.10;;;;;;;20.24;29.92;98089.03;116391;1182;68416;-69
2021/10/06 09:41:45;;;;;;;7.00;3.10;;;;;;;20.51;29.76;98086.15;116379;1182;69225;-71
2021/10/06 09:44:18;;;;;;;11.30;3.30;;;;;;;20.84;29.62;98088.23;116190;1184;59515;-71
2021/10/06 09:47:02;;;;;;;8.60;3.30;;;;;;;21.17;29.07;98086.26;116330;1182;59832;-74
2021/10/06 09:49:36;;;;;;;8.70;3.30;;;;;;;21.31;28.30;98083.79;116411;1182;71376;-70
2021/10/06 09:52:26;;;;;;;4.70;2.90;;;;;;;20.97;28.86;98087.31;116375;1182;67984;-72
2021/10/06 09:54:57;;;;;;;;;;;;;;;20.74;29.38;98077.98;116452;1182;68572;-71
2021/10/06 09:57:28;;;;;;;;;;;;;;;21.13;29.18;98077.91;116374;1182;59613;-70
2021/10/06 10:00:00;;;;;;;10.20;3.00;;;;;;;20.79;28.97;98072.62;116220;1184;59545;-71
2021/10/06 10:02:39;;;;;;;9.80;3.70;;;;;;;20.86;29.24;98077.11;116415;1182;70223;-74
2021/10/06 10:05:10;;;;;;;8.10;3.00;;;;;;;21.42;28.53;98073.40;116432;1182;68413;-73
2021/10/06 10:07:39;;;;;;;8.80;3.00;;;;;;;21.29;28.53;98075.46;116344;1182;69437;-72
2021/10/06 10:10:11;;;;;;;6.90;3.10;;;;;;;21.68;27.68;98072.76;116223;1183;59584;-74
2021/10/06 10:12:43;;;;;;;9.10;3.40;;;;;;;21.92;27.50;98071.81;116344;1182;59563;-75
2021/10/06 10:15:16;;;;;;;11.50;3.40;;;;;;;22.17;27.12;98068.66;116396;1182;71417;-74
2021/10/06 10:17:51;;;;;;;9.00;3.10;;;;;;;21.97;27.33;98069.30;116134;1184;68489;-74
2021/10/06 10:20:21;;;;;;;14.40;3.10;;;;;;;22.37;26.68;98063.14;116391;1182;69400;-70
2021/10/06 10:22:56;;;;;;;7.30;2.80;;;;;;;22.09;26.67;98066.51;116359;1182;59591;-75
2021/10/06 10:25:32;;;;;;;6.80;3.10;;;;;;;22.22;26.78;98069.45;116371;1182;59542;-74
2021/10/06 10:28:12;;;;;;;6.00;3.00;;;;;;;22.13;26.69;98060.90;116250;1173;71409;-74
2021/10/06 10:30:58;;;;;;;12.50;3.10;;;;;;;21.93;26.93;98054.45;116347;1182;68418;-69
2021/10/06 10:33:45;;;;;;;8.70;3.10;;;;;;;21.85;27.49;98053.14;116347;1182;69094;-70
2021/10/06 10:36:32;;;;;;;6.80;2.80;;;;;;;22.16;27.31;98054.09;116398;1182;59569;-69
2021/10/06 10:39:24;;;;;;;6.90;3.10;;;;;;;22.33;26.96;98047.58;116410;1182;59554;-72
2021/10/06 10:41:54;;;;;;;5.00;2.70;;;;;;;21.99;27.69;98048.69;116393;1182;71394;-70
2021/10/06 10:44:24;;;;;;;8.30;3.10;;;;;;;21.77;27.83;98041.97;116340;1182;67724;-70
2021/10/06 10:46:57;;;;;;;10.10;3.10;;;;;;;22.22;27.22;98035.98;116367;1182;68855;-73
2021/10/06 10:49:45;;;;;;;7.90;2.80;;;;;;;22.42;26.79;98033.92;116427;1174;59549;-70
2021/10/06 10:52:16;;;;;;;6.60;2.90;;;;;;;21.93;27.27;98040.45;116228;1184;59504;-71
2021/10/06 10:54:47;;;;;;;12.80;2.90;;;;;;;22.20;27.23;98034.23;116362;1182;70430;-70
2021/10/06 10:57:33;;;;;;;6.70;3.00;;;;;;;22.66;26.98;98030.89;116420;1181;68236;-71
2021/10/06 11:00:03;;;;;;;9.40;3.10;;;;;;;22.58;26.67;98036.30;116349;1182;68248;-72
2021/10/06 11:02:37;;;;;;;7.50;2.90;;;;;;;22.35;26.92;98034.25;116385;1182;59697;-72
2021/10/06 11:05:09;;;;;;;9.00;3.40;;;;;;;22.38;27.45;98019.50;116282;1182;59608;-73
2021/10/06 11:07:52;;;;;;;7.40;2.70;;;;;;;22.71;27.04;98016.86;116272;1182;70707;-73
2021/10/06 11:10:27;;;;;;;7.10;2.70;;;;;;;22.89;26.50;98017.16;116443;1173;68568;-72
2021/10/06 11:13:05;;;;;;;11.10;2.80;;;;;;;22.94;26.56;98014.41;116390;1182;69279;-72
2021/10/06 11:15:36;;;;;;;11.10;2.90;;;;;;;23.40;26.05;98005.27;116330;1182;59545;-69
2021/10/06 11:18:16;;;;;;;6.60;2.90;;;;;;;23.50;25.80;98001.79;116384;1182;59526;-69
2021/10/06 11:20:58;;;;;;;6.80;2.90;;;;;;;23.34;25.86;98001.56;116416;1182;71403;-72
2021/10/06 11:23:29;;;;;;;14.20;3.10;;;;;;;23.52;26.03;98002.70;116414;1182;68430;-74
2021/10/06 11:26:21;;;;;;;8.20;2.70;;;;;;;23.76;25.33;97992.67;116426;1182;69077;-73
2021/10/06 11:28:52;;;;;;;8.60;3.20;;;;;;;22.85;26.02;98001.41;116409;1182;59532;-70
2021/10/06 11:31:27;;;;;;;6.60;3.10;;;;;;;22.35;26.54;97992.13;116304;1184;59555;-70
2021/10/06 11:34:00;;;;;;;7.20;3.10;;;;;;;22.01;27.71;97991.27;116431;1182;70654;-70
2021/10/06 11:36:34;;;;;;;9.20;3.30;;;;;;;22.63;27.19;97985.41;116183;1184;67738;-71
2021/10/06 11:39:11;;;;;;;10.10;2.90;;;;;;;22.78;27.27;97986.33;116454;1182;68642;-73
2021/10/06 11:41:50;;;;;;;7.90;2.80;;;;;;;23.24;26.43;97978.86;116386;1182;59506;-71
2021/10/06 11:44:32;;;;;;;7.40;2.40;;;;;;;23.42;26.40;97980.34;116422;1182;59532;-70